createdAt,value
2022-11-09T00:00:04.950Z,82.91
2022-11-09T00:02:31.282Z,83.13
2022-11-09T00:04:57.729Z,82.95
2022-11-09T00:07:24.170Z,83.33
2022-11-09T00:09:50.572Z,83.19
2022-11-09T00:12:17.048Z,83.60
2022-11-09T00:14:43.454Z,83.42
2022-11-09T00:17:09.904Z,83.46
2022-11-09T00:19:36.375Z,83.42
2022-11-09T00:22:02.762Z,83.28
2022-11-09T00:24:29.152Z,83.67
2022-11-09T00:26:55.594Z,83.11
2022-11-09T00:29:21.996Z,83.55
2022-11-09T00:31:49.669Z,83.31
2022-11-09T00:34:16.088Z,83.39
2022-11-09T00:36:42.499Z,83.64
2022-11-09T00:39:08.908Z,83.62
2022-11-09T00:41:35.619Z,83.34
2022-11-09T00:44:02.018Z,83.44
2022-11-09T00:46:28.925Z,83.49
2022-11-09T00:48:56.023Z,83.87
2022-11-09T00:51:22.661Z,83.35
2022-11-09T00:53:53.754Z,83.84
2022-11-09T00:56:20.592Z,83.68
2022-11-09T00:58:47.280Z,83.54
2022-11-09T01:01:15.125Z,83.72
2022-11-09T01:03:43.304Z,83.70
2022-11-09T01:06:13.827Z,83.20
2022-11-09T01:08:42.696Z,83.36
2022-11-09T01:11:09.853Z,83.16
2022-11-09T01:13:36.886Z,83.53
2022-11-09T01:16:08.036Z,83.79
2022-11-09T01:18:35.995Z,83.57
2022-11-09T01:21:03.549Z,83.44
2022-11-09T01:23:30.905Z,83.73
2022-11-09T01:25:59.435Z,83.76
2022-11-09T01:28:25.859Z,83.87
2022-11-09T01:30:52.463Z,83.72
2022-11-09T01:33:19.179Z,84.07
2022-11-09T01:35:45.696Z,84.14
2022-11-09T01:38:12.265Z,83.88
2022-11-09T01:40:40.054Z,84.04
2022-11-09T01:43:13.942Z,83.67
2022-11-09T01:45:41.087Z,83.63
2022-11-09T01:48:13.620Z,83.67
2022-11-09T01:50:48.905Z,83.67
2022-11-09T01:53:24.781Z,83.61
2022-11-09T01:55:52.852Z,83.82
2022-11-09T01:58:23.269Z,83.68
2022-11-09T02:00:50.960Z,83.88
2022-11-09T02:03:36.388Z,83.84
2022-11-09T02:06:05.138Z,83.87
2022-11-09T02:08:31.601Z,83.49
2022-11-09T02:11:16.041Z,83.60
2022-11-09T02:13:48.175Z,83.51
2022-11-09T02:16:15.333Z,83.47
2022-11-09T02:18:48.679Z,83.31
2022-11-09T02:21:15.565Z,83.34
2022-11-09T02:23:42.038Z,83.31
2022-11-09T02:26:10.735Z,83.56
2022-11-09T02:28:39.172Z,83.43
2022-11-09T02:31:08.189Z,83.32
2022-11-09T02:33:45.110Z,83.61
2022-11-09T02:36:11.700Z,83.65
2022-11-09T02:38:38.159Z,83.77
2022-11-09T02:41:05.862Z,83.55
2022-11-09T02:43:32.280Z,83.48
2022-11-09T02:45:59.707Z,83.42
2022-11-09T02:48:26.185Z,83.63
2022-11-09T02:50:52.620Z,83.75
2022-11-09T02:53:20.523Z,83.23
2022-11-09T02:55:47.226Z,83.69
2022-11-09T02:58:13.809Z,83.47
2022-11-09T03:00:40.658Z,83.72
2022-11-09T03:03:07.070Z,83.57
2022-11-09T03:05:33.683Z,83.53
2022-11-09T03:08:02.557Z,83.53
2022-11-09T03:10:31.934Z,83.55
2022-11-09T03:12:58.475Z,83.58
2022-11-09T03:15:24.914Z,83.58
2022-11-09T03:17:51.379Z,83.17
2022-11-09T03:20:18.950Z,83.56
2022-11-09T03:22:48.027Z,83.06
2022-11-09T03:25:14.540Z,83.35
2022-11-09T03:27:41.040Z,83.14
2022-11-09T03:30:08.505Z,83.62
2022-11-09T03:32:35.108Z,83.51
2022-11-09T03:35:01.869Z,83.87
2022-11-09T03:37:28.311Z,84.06
2022-11-09T03:39:54.871Z,83.75
2022-11-09T03:42:21.323Z,83.92
2022-11-09T03:44:49.099Z,84.01
2022-11-09T03:47:15.450Z,84.22
2022-11-09T03:49:41.852Z,84.22
2022-11-09T03:52:08.238Z,83.99
2022-11-09T03:54:34.742Z,84.25
2022-11-09T03:57:01.106Z,84.28
2022-11-09T03:59:27.492Z,84.40
2022-11-09T04:01:53.926Z,84.45
2022-11-09T04:04:20.549Z,84.60
2022-11-09T04:06:46.974Z,84.72
2022-11-09T04:09:13.457Z,84.97
2022-11-09T04:11:40.016Z,84.36
2022-11-09T04:14:06.403Z,84.22
2022-11-09T04:16:33.181Z,84.69
2022-11-09T04:18:59.596Z,83.98
2022-11-09T04:21:26.025Z,83.99
2022-11-09T04:23:52.430Z,84.20
2022-11-09T04:26:18.882Z,84.11
2022-11-09T04:28:45.529Z,83.99
2022-11-09T04:31:11.997Z,84.10
2022-11-09T04:33:38.380Z,84.41
2022-11-09T04:36:05.173Z,84.30
2022-11-09T04:38:31.727Z,84.32
2022-11-09T04:41:01.905Z,84.05
2022-11-09T04:43:28.629Z,83.89
2022-11-09T04:45:55.823Z,84.22
2022-11-09T04:48:22.222Z,84.00
2022-11-09T04:50:48.631Z,83.87
2022-11-09T04:53:17.889Z,84.27
2022-11-09T04:55:44.591Z,84.08
2022-11-09T04:58:11.293Z,84.26
2022-11-09T05:00:38.287Z,84.06
2022-11-09T05:03:05.753Z,84.40
2022-11-09T05:05:36.276Z,84.09
2022-11-09T05:08:03.287Z,84.58
2022-11-09T05:10:29.992Z,84.45
2022-11-09T05:13:01.385Z,84.44
2022-11-09T05:15:27.887Z,84.71
2022-11-09T05:17:54.388Z,85.17
2022-11-09T05:20:20.835Z,84.75
2022-11-09T05:23:05.854Z,84.64
2022-11-09T05:25:32.281Z,84.75
2022-11-09T05:27:58.697Z,84.45
2022-11-09T05:30:25.155Z,84.37
2022-11-09T05:32:51.567Z,84.24
2022-11-09T05:35:18.047Z,84.36
2022-11-09T05:37:48.435Z,84.21
2022-11-09T05:40:15.634Z,83.76
2022-11-09T05:42:42.162Z,83.98
2022-11-09T05:45:40.248Z,83.66
2022-11-09T05:47:56.292Z,84.27
2022-11-09T05:50:22.884Z,84.13
2022-11-09T05:52:54.284Z,83.89
2022-11-09T05:55:20.674Z,83.71
2022-11-09T05:57:47.076Z,84.02
2022-11-09T06:00:13.840Z,84.55
2022-11-09T06:02:40.234Z,84.19
2022-11-09T06:05:06.884Z,84.37
2022-11-09T06:07:33.505Z,84.33
2022-11-09T06:09:59.934Z,84.47
2022-11-09T06:12:26.361Z,84.38
2022-11-09T06:14:52.763Z,84.32
2022-11-09T06:17:19.182Z,84.48
2022-11-09T06:19:45.602Z,84.31
2022-11-09T06:22:12.444Z,83.78
2022-11-09T06:24:38.916Z,83.93
2022-11-09T06:27:05.340Z,83.88
2022-11-09T06:29:31.855Z,83.58
2022-11-09T06:31:58.247Z,84.09
2022-11-09T06:34:24.639Z,83.71
2022-11-09T06:36:51.090Z,83.88
2022-11-09T06:39:17.481Z,83.62
2022-11-09T06:41:47.378Z,83.44
2022-11-09T06:44:14.723Z,83.44
2022-11-09T06:46:41.194Z,83.47
2022-11-09T06:49:08.124Z,83.85
2022-11-09T06:51:34.542Z,83.61
2022-11-09T06:54:00.904Z,83.24
2022-11-09T06:56:27.736Z,83.93
2022-11-09T06:58:54.332Z,83.33
2022-11-09T07:01:23.352Z,83.54
2022-11-09T07:03:49.826Z,83.60
2022-11-09T07:06:16.283Z,83.30
2022-11-09T07:08:42.885Z,83.39
2022-11-09T07:11:11.111Z,83.27
2022-11-09T07:13:38.103Z,83.80
2022-11-09T07:16:04.828Z,83.05
2022-11-09T07:18:31.260Z,83.45
2022-11-09T07:20:57.700Z,82.90
2022-11-09T07:23:24.172Z,83.11
2022-11-09T07:25:50.648Z,83.04
2022-11-09T07:28:17.384Z,82.67
2022-11-09T07:30:43.840Z,81.72
2022-11-09T07:33:12.750Z,81.37
2022-11-09T07:35:39.128Z,80.41
2022-11-09T07:38:05.962Z,80.04
2022-11-09T07:40:32.557Z,80.03
2022-11-09T07:42:59.653Z,80.12
2022-11-09T07:45:27.170Z,80.22
2022-11-09T07:47:57.803Z,79.80
2022-11-09T07:50:24.678Z,79.46
2022-11-09T07:52:51.186Z,79.37
2022-11-09T07:55:17.867Z,79.48
2022-11-09T07:57:44.369Z,78.75
2022-11-09T08:00:11.443Z,78.71
2022-11-09T08:02:40.871Z,78.54
2022-11-09T08:05:07.400Z,77.86
2022-11-09T08:07:34.330Z,77.22
2022-11-09T08:10:00.796Z,76.56
2022-11-09T08:12:27.793Z,76.58
2022-11-09T08:14:54.646Z,76.75
2022-11-09T08:17:21.225Z,76.65
2022-11-09T08:19:47.631Z,76.74
2022-11-09T08:22:14.313Z,76.56
2022-11-09T08:24:40.935Z,76.72
2022-11-09T08:27:07.538Z,75.98
2022-11-09T08:29:34.013Z,76.08
2022-11-09T08:32:01.219Z,75.90
2022-11-09T08:34:27.884Z,75.50
2022-11-09T08:36:54.328Z,75.49
2022-11-09T08:39:23.062Z,75.52
2022-11-09T08:41:49.471Z,75.19
2022-11-09T08:44:15.978Z,74.53
2022-11-09T08:46:42.443Z,74.55
2022-11-09T08:49:08.900Z,74.07
2022-11-09T08:51:35.311Z,74.65
2022-11-09T08:54:02.705Z,74.16
2022-11-09T08:56:29.101Z,74.25
2022-11-09T08:58:55.497Z,74.81
2022-11-09T09:01:22.040Z,74.11
2022-11-09T09:03:51.447Z,74.41
2022-11-09T09:06:17.837Z,73.17
2022-11-09T09:08:44.264Z,73.50
2022-11-09T09:11:10.837Z,73.73
2022-11-09T09:13:42.890Z,74.21
2022-11-09T09:16:10.823Z,73.34
2022-11-09T09:18:37.617Z,72.67
2022-11-09T09:21:07.639Z,73.44
2022-11-09T09:23:34.222Z,72.60
2022-11-09T09:26:00.699Z,73.33
2022-11-09T09:28:27.314Z,72.80
2022-11-09T09:30:54.085Z,73.02
2022-11-09T09:33:20.742Z,72.26
2022-11-09T09:35:47.205Z,72.71
2022-11-09T09:38:13.664Z,72.85
2022-11-09T09:40:49.412Z,71.86
2022-11-09T09:43:19.798Z,72.14
2022-11-09T09:45:51.771Z,72.31
2022-11-09T09:48:24.889Z,72.09
2022-11-09T09:50:53.778Z,71.75
2022-11-09T09:53:24.647Z,71.47
2022-11-09T09:55:55.247Z,70.98
2022-11-09T09:58:26.246Z,71.23
2022-11-09T10:00:55.184Z,71.17
2022-11-09T10:03:21.654Z,71.20
2022-11-09T10:05:55.978Z,70.85
2022-11-09T10:08:33.338Z,69.76
2022-11-09T10:11:25.852Z,71.02
2022-11-09T10:14:21.588Z,70.05
2022-11-09T10:16:56.943Z,69.63
2022-11-09T10:19:31.212Z,69.88
2022-11-09T10:22:05.643Z,69.77
2022-11-09T10:24:32.074Z,69.40
2022-11-09T10:26:59.797Z,68.74
2022-11-09T10:29:26.165Z,68.47
2022-11-09T10:31:54.423Z,69.33
2022-11-09T10:34:27.893Z,69.48
2022-11-09T10:36:58.105Z,68.78
2022-11-09T10:39:26.137Z,68.22
2022-11-09T10:42:11.554Z,68.41
2022-11-09T10:44:58.312Z,68.25
2022-11-09T10:47:50.887Z,68.52
2022-11-09T10:50:51.814Z,69.10
2022-11-09T10:53:37.680Z,68.90
2022-11-09T10:56:22.687Z,68.33
2022-11-09T10:59:26.580Z,69.11
2022-11-09T11:02:26.783Z,68.53
2022-11-09T11:05:17.560Z,68.92
2022-11-09T11:08:12.082Z,68.12
2022-11-09T11:11:33.726Z,68.91
2022-11-09T11:14:28.791Z,68.24
2022-11-09T11:17:24.441Z,69.49
2022-11-09T11:20:29.846Z,69.58
2022-11-09T11:23:20.176Z,68.69
2022-11-09T11:26:05.384Z,69.86
2022-11-09T11:29:10.800Z,68.38
2022-11-09T11:31:55.754Z,68.64
2022-11-09T11:34:59.288Z,68.42
2022-11-09T11:38:04.783Z,69.05
2022-11-09T11:41:08.728Z,69.15
2022-11-09T11:43:53.858Z,68.93
2022-11-09T11:46:44.443Z,69.28
2022-11-09T11:49:29.617Z,69.25
2022-11-09T11:52:23.907Z,68.40
2022-11-09T11:55:27.974Z,69.12
2022-11-09T11:58:19.120Z,68.86
2022-11-09T12:01:05.115Z,68.91
2022-11-09T12:03:58.281Z,68.46
2022-11-09T12:06:49.883Z,68.79
2022-11-09T12:09:44.160Z,68.36
2022-11-09T12:12:34.852Z,68.12
2022-11-09T12:15:23.352Z,68.97
2022-11-09T12:18:19.156Z,68.09
2022-11-09T12:21:19.315Z,68.18
2022-11-09T12:24:17.751Z,68.28
2022-11-09T12:27:31.662Z,68.17
2022-11-09T12:30:20.882Z,68.26
2022-11-09T12:33:12.448Z,67.78
2022-11-09T12:36:01.570Z,68.20
2022-11-09T12:38:55.979Z,68.15
2022-11-09T12:41:40.955Z,68.77
2022-11-09T12:44:26.105Z,68.50
2022-11-09T12:47:19.033Z,68.46
2022-11-09T12:50:04.462Z,68.57
2022-11-09T12:52:52.230Z,68.28
2022-11-09T12:55:37.198Z,67.75
2022-11-09T12:58:25.253Z,68.43
2022-11-09T13:01:33.288Z,67.84
2022-11-09T13:04:19.368Z,67.51
2022-11-09T13:07:07.529Z,67.56
2022-11-09T13:09:53.895Z,67.64
2022-11-09T13:12:40.740Z,67.54
2022-11-09T13:15:26.744Z,67.17
2022-11-09T13:18:35.044Z,67.63
2022-11-09T13:21:23.725Z,66.99
2022-11-09T13:24:31.929Z,67.92
2022-11-09T13:27:35.766Z,67.52
2022-11-09T13:30:28.309Z,67.28
2022-11-09T13:33:24.113Z,66.92
2022-11-09T13:36:09.857Z,66.92
2022-11-09T13:39:23.314Z,67.38
2022-11-09T13:42:43.653Z,66.98
2022-11-09T13:45:28.599Z,66.91
2022-11-09T13:48:24.535Z,66.94
2022-11-09T13:51:17.775Z,66.56
2022-11-09T13:54:04.305Z,66.69
2022-11-09T13:56:50.403Z,66.92
2022-11-09T13:59:39.397Z,67.46
2022-11-09T14:02:25.388Z,66.98
2022-11-09T14:05:27.211Z,67.00
2022-11-09T14:08:20.355Z,67.56
2022-11-09T14:11:13.437Z,67.77
2022-11-09T14:14:07.864Z,67.73
2022-11-09T14:17:15.977Z,68.49
2022-11-09T14:20:09.204Z,68.16
2022-11-09T14:22:56.684Z,69.09
2022-11-09T14:25:41.680Z,69.27
2022-11-09T14:28:27.938Z,68.29
2022-11-09T14:31:22.220Z,69.17
2022-11-09T14:34:07.729Z,68.40
2022-11-09T14:36:52.912Z,68.68
2022-11-09T14:39:38.748Z,69.62
2022-11-09T14:42:24.134Z,69.57
2022-11-09T14:45:16.018Z,69.50
2022-11-09T14:48:01.473Z,69.80
2022-11-09T14:50:47.259Z,69.55
2022-11-09T14:53:35.049Z,69.61
2022-11-09T14:56:21.595Z,69.63
2022-11-09T14:59:08.126Z,69.62
2022-11-09T15:02:19.491Z,70.60
2022-11-09T15:05:05.731Z,70.29
2022-11-09T15:07:51.200Z,70.97
2022-11-09T15:10:37.238Z,70.35
2022-11-09T15:13:51.543Z,71.24
2022-11-09T15:16:36.421Z,71.30
2022-11-09T15:19:21.598Z,70.82
2022-11-09T15:22:26.381Z,71.74
2022-11-09T15:25:30.367Z,71.37
2022-11-09T15:28:26.046Z,70.90
2022-11-09T15:31:13.425Z,71.34
2022-11-09T15:33:58.517Z,72.08
2022-11-09T15:36:46.078Z,72.33
2022-11-09T15:39:31.131Z,72.72
2022-11-09T15:42:16.230Z,72.35
2022-11-09T15:45:01.704Z,72.15
2022-11-09T15:47:54.413Z,72.65
2022-11-09T15:50:39.662Z,72.72
2022-11-09T15:53:25.183Z,73.82
2022-11-09T15:56:24.018Z,74.09
2022-11-09T15:59:18.003Z,73.39
2022-11-09T16:02:03.715Z,73.93
2022-11-09T16:04:48.630Z,73.74
2022-11-09T16:07:33.865Z,73.63
2022-11-09T16:10:27.215Z,73.73
2022-11-09T16:13:12.351Z,74.40
2022-11-09T16:16:04.608Z,73.98
2022-11-09T16:18:49.693Z,73.95
2022-11-09T16:21:34.904Z,74.12
2022-11-09T16:24:19.981Z,74.18
2022-11-09T16:27:12.566Z,74.42
2022-11-09T16:30:08.803Z,74.10
2022-11-09T16:32:53.622Z,74.36
2022-11-09T16:35:38.413Z,74.46
2022-11-09T16:38:23.626Z,74.95
2022-11-09T16:41:09.305Z,75.08
2022-11-09T16:43:56.490Z,74.90
2022-11-09T16:46:46.030Z,74.67
2022-11-09T16:49:31.683Z,74.80
2022-11-09T16:52:17.088Z,75.13
2022-11-09T16:55:02.387Z,74.65
2022-11-09T16:57:47.436Z,74.74
2022-11-09T17:00:55.802Z,74.86
2022-11-09T17:03:37.587Z,75.16
2022-11-09T17:06:22.825Z,75.25
2022-11-09T17:09:08.337Z,75.39
2022-11-09T17:11:53.344Z,75.21
2022-11-09T17:14:38.339Z,75.14
2022-11-09T17:17:23.179Z,75.34
2022-11-09T17:20:08.359Z,75.35
2022-11-09T17:22:53.905Z,75.33
2022-11-09T17:25:39.523Z,75.56
2022-11-09T17:28:25.364Z,75.39
2022-11-09T17:31:12.069Z,75.85
2022-11-09T17:34:01.180Z,75.63
2022-11-09T17:37:03.677Z,75.78
2022-11-09T17:39:49.602Z,75.91
2022-11-09T17:42:35.140Z,75.80
2022-11-09T17:45:20.129Z,76.20
2022-11-09T17:48:05.330Z,76.09
2022-11-09T17:50:50.723Z,76.12
2022-11-09T17:53:36.074Z,75.84
2022-11-09T17:56:21.488Z,76.11
2022-11-09T17:59:06.717Z,75.79
2022-11-09T18:01:52.172Z,76.34
2022-11-09T18:04:37.618Z,76.37
2022-11-09T18:07:22.636Z,76.26
2022-11-09T18:10:07.785Z,76.71
2022-11-09T18:12:53.111Z,76.41
2022-11-09T18:15:38.996Z,76.86
2022-11-09T18:18:25.277Z,76.96
2022-11-09T18:21:12.255Z,76.56
2022-11-09T18:23:57.520Z,76.78
2022-11-09T18:26:42.531Z,76.74
2022-11-09T18:29:27.957Z,77.34
2022-11-09T18:32:12.967Z,77.19
2022-11-09T18:34:57.929Z,77.55
2022-11-09T18:37:45.380Z,77.70
2022-11-09T18:40:30.835Z,77.31
2022-11-09T18:43:15.659Z,77.62
2022-11-09T18:46:02.321Z,77.59
2022-11-09T18:48:50.315Z,77.86
2022-11-09T18:51:35.269Z,78.17
2022-11-09T18:54:20.392Z,78.08
2022-11-09T18:57:05.478Z,78.39
2022-11-09T18:59:50.424Z,78.24
2022-11-09T19:02:35.330Z,78.26
2022-11-09T19:05:20.382Z,78.62
2022-11-09T19:08:05.369Z,78.51
2022-11-09T19:10:50.339Z,78.47
2022-11-09T19:13:35.173Z,78.84
2022-11-09T19:16:20.249Z,78.59
2022-11-09T19:19:05.229Z,78.71
2022-11-09T19:21:51.807Z,79.15
2022-11-09T19:24:36.855Z,79.33
2022-11-09T19:27:22.470Z,79.35
2022-11-09T19:30:09.800Z,79.48
2022-11-09T19:32:55.153Z,79.92
2022-11-09T19:35:39.932Z,79.50
2022-11-09T19:38:24.956Z,79.83
2022-11-09T19:41:10.027Z,79.44
2022-11-09T19:43:58.434Z,79.77
2022-11-09T19:46:44.265Z,79.92
2022-11-09T19:49:29.272Z,79.46
2022-11-09T19:52:14.520Z,79.65
2022-11-09T19:54:59.436Z,79.91
2022-11-09T19:57:44.432Z,79.73
2022-11-09T20:00:29.370Z,79.87
2022-11-09T20:03:14.231Z,80.07
2022-11-09T20:05:59.176Z,80.08
2022-11-09T20:08:44.030Z,80.43
2022-11-09T20:11:47.795Z,80.63
2022-11-09T20:14:32.920Z,80.22
2022-11-09T20:17:17.882Z,80.41
2022-11-09T20:20:02.920Z,80.19
2022-11-09T20:22:47.991Z,80.38
2022-11-09T20:25:33.355Z,80.68
2022-11-09T20:28:18.506Z,80.75
2022-11-09T20:31:19.376Z,80.68
2022-11-09T20:34:04.825Z,80.44
2022-11-09T20:36:49.942Z,80.38
2022-11-09T20:39:35.394Z,80.71
2022-11-09T20:42:20.253Z,81.04
2022-11-09T20:45:05.507Z,80.86
2022-11-09T20:48:07.658Z,81.13
2022-11-09T20:50:55.647Z,81.29
2022-11-09T20:53:40.570Z,80.94
2022-11-09T20:56:25.430Z,80.87
2022-11-09T20:59:10.507Z,81.72
2022-11-09T21:01:55.489Z,81.20
2022-11-09T21:04:40.336Z,81.35
2022-11-09T21:07:25.261Z,81.81
2022-11-09T21:10:10.270Z,81.41
2022-11-09T21:12:55.727Z,81.37
2022-11-09T21:15:40.684Z,81.42
2022-11-09T21:18:26.378Z,81.33
2022-11-09T21:21:15.945Z,81.60
2022-11-09T21:24:19.719Z,81.70
2022-11-09T21:27:24.527Z,81.66
2022-11-09T21:30:10.040Z,81.67
2022-11-09T21:32:55.212Z,82.08
2022-11-09T21:35:40.279Z,81.73
2022-11-09T21:38:25.218Z,81.86
2022-11-09T21:41:29.058Z,81.66
2022-11-09T21:44:14.252Z,81.55
2022-11-09T21:46:59.812Z,81.73
2022-11-09T21:49:44.951Z,81.51
2022-11-09T21:52:29.930Z,82.05
2022-11-09T21:55:14.770Z,81.22
2022-11-09T21:58:00.784Z,81.96
2022-11-09T22:00:45.762Z,81.99
2022-11-09T22:03:30.529Z,82.09
2022-11-09T22:06:15.759Z,81.86
2022-11-09T22:09:00.821Z,82.01
2022-11-09T22:12:04.639Z,82.07
2022-11-09T22:15:08.741Z,81.95
2022-11-09T22:17:54.390Z,82.12
2022-11-09T22:20:54.717Z,81.94
2022-11-09T22:23:39.673Z,82.36
2022-11-09T22:26:24.851Z,82.15
2022-11-09T22:29:09.655Z,82.00
2022-11-09T22:31:54.605Z,81.98
2022-11-09T22:34:39.460Z,82.63
2022-11-09T22:37:24.459Z,82.31
2022-11-09T22:40:09.662Z,82.35
2022-11-09T22:42:56.012Z,82.59
2022-11-09T22:45:41.105Z,82.40
2022-11-09T22:48:25.905Z,82.47
2022-11-09T22:51:15.708Z,82.56
2022-11-09T22:54:00.887Z,82.59
2022-11-09T22:56:45.717Z,83.05
2022-11-09T22:59:30.739Z,83.11
2022-11-09T23:02:15.767Z,83.63
2022-11-09T23:05:00.698Z,84.68
2022-11-09T23:07:46.238Z,84.27
2022-11-09T23:10:31.395Z,84.38
2022-11-09T23:13:16.656Z,83.93
2022-11-09T23:16:04.633Z,83.96
2022-11-09T23:18:55.972Z,83.62
2022-11-09T23:21:41.255Z,83.51
2022-11-09T23:24:44.967Z,83.72
2022-11-09T23:27:30.006Z,83.46
2022-11-09T23:30:15.551Z,83.45
2022-11-09T23:33:01.646Z,83.53
2022-11-09T23:35:46.764Z,83.33
2022-11-09T23:38:32.564Z,83.22
2022-11-09T23:41:18.046Z,82.75
2022-11-09T23:44:03.359Z,83.13
2022-11-09T23:46:48.315Z,82.96
2022-11-09T23:49:33.280Z,83.41
2022-11-09T23:52:18.368Z,83.31
2022-11-09T23:55:03.748Z,83.36
2022-11-09T23:57:48.838Z,83.11
